Hauptseite
METAR-TAF:

METAR-TAF

Flughäfen :

Verkehrslandeplatz Mönchengladbach

Mönchengladbach, Deutschland

Breite: 51-13-49N, Länge: 006-30-16E, Höhe: 38 m

Beobachtung

Neuester Wetterbericht von vor 24 Minuten, um 22:50 UTC
Wind 4 kt aus Süd/Südost, variierte zwischen Ost/Südost und Süd
Temperatur 1°C
Luftfeuchtigkeit 93%
Luftdruck 1000 hPa
Sichtweite 10 km oder mehr

METAR: EDLN 122250Z AUTO 16004KT 120V190 9999 // NCD 01/00 Q1000

Zeit: 00:14 (23:14 UTC)

Prognose

Neuester Wetterbericht von vor 6 Stunden und 14 Minuten, um 17:00 UTC
Gültige Prognose vom 12 um 18 UTC bis 13 um 03 UTC
Wind 7 kt aus Süd
Sichtweite 10 km oder mehr
Leicht bewölkt in der Höhe von 3500 ft
Zeitweise
vom 13 um 01 UTC bis 13 um 03 UTC
Durchbrochene Bewölkung in der Höhe von 2000 ft, Towering cumulus.
Regenschauer

TAF: EDLN 121700Z 1218/1303 19007KT 9999 FEW035 TEMPO 1301/1303 SHRA BKN020TCU

Wetterbeobachtungen und Prognosen von mehr als 4000 Flughäfen (METAR und TAF Bericht).

Die verfügbaren Stationen werden durch gelbe und rote Markierungen auf der Karte dargestellt.

Führen Sie die Maus auf sie, um den Namen der Station zu sehen.

Darauf klicken, um die Beobachtung von Wetterbeobachtungen und Prognosen zu sehen.

Um die Karte zu ändern : klicken Sie auf den grünen Tasten mit einem schwarzen Kreuz Zum Vergrößern, auf den grünen Button mit einem Gedankenstrich zu verkleinern, oder auf die grünen Pfeile für benachbarte Karten.


METAR-TAF: